Spirit of New Zealand — ZMSV — position and weather

sailwx.info

Track history (hours):
 
Tides and Currents Weather Stations Pressure Air Temp Water Temp Dewpoint Dewpoint Depression Visibility Wind Speed Wind Dir Waves Ship Positions

Spirit of New Zealand

Last reported at 2020-Jan-18 20:29 UTC. Time now 2020-Jan-18 20:50 UTC.
Position S 41°10' E 173°48'.

Length 37 m; draft 4.1 m.

Type: Passenger vessel. MMSI: 512201000.

Date/timePositionNaut miles runAvg speedWind from/ knotsBaromVisibWave heightAir tempDewpointWater temp
2020-Jan-18 20:29S 41°10' E 173°48'4 3.8
2020-Jan-18 19:30S 41°08' E 173°52'1 0.9
2020-Jan-18 17:58S 41°08' E 173°54'0 0.1
2020-Jan-18 17:28S 41°08' E 173°54'0 0.0
2020-Jan-18 16:28S 41°08' E 173°54'0 0.0
2020-Jan-18 15:28S 41°08' E 173°54'0 0.0
2020-Jan-18 14:58S 41°08' E 173°54'0 0.0
2020-Jan-18 13:28S 41°08' E 173°54'0 0.0
2020-Jan-18 10:28S 41°08' E 173°54'0 0.0
2020-Jan-18 09:55S 41°08' E 173°54'0 0.0
2020-Jan-18 06:28S 41°08' E 173°54'0 0.0
2020-Jan-18 05:58S 41°08' E 173°54'8 4.0
2020-Jan-18 04:01S 40°60' E 173°55'5 2.4
2020-Jan-18 02:01S 40°60' E 174°02'3 2.6
2020-Jan-18 01:01S 40°59' E 174°05'3 2.7
2020-Jan-18 00:00S 41°01' E 174°08'0 0.0
2020-Jan-17 20:00S 41°01' E 174°08'0 0.0
2020-Jan-17 18:30S 41°01' E 174°08'0 0.0
2020-Jan-17 17:30S 41°01' E 174°08'0 0.0
2020-Jan-17 16:30S 41°01' E 174°08'0 0.0
2020-Jan-17 15:00S 41°01' E 174°08'0 0.0
2020-Jan-17 11:30S 41°01' E 174°08'0 0.0
2020-Jan-17 08:30S 41°01' E 174°08'0 0.0
2020-Jan-17 07:00S 41°01' E 174°08'10 4.9
2020-Jan-17 05:00S 40°58' E 174°21'3 5.5
2020-Jan-17 04:31S 41°00' E 174°21'5 9.1
2020-Jan-17 04:00S 41°05' E 174°19'12 7.9
2020-Jan-17 02:30S 41°14' E 174°08'5 2.4
2020-Jan-17 00:28S 41°16' E 174°03'15 2.1
2020-Jan-16 17:28S 41°06' E 174°18'0 0.0
2020-Jan-16 16:58S 41°06' E 174°18'0 0.0
2020-Jan-16 13:58S 41°06' E 174°18'0 0.0
2020-Jan-16 12:58S 41°06' E 174°18'0 0.0
2020-Jan-16 12:28S 41°06' E 174°18'0 0.0
2020-Jan-16 11:58S 41°06' E 174°18'0 0.0
2020-Jan-16 10:58S 41°06' E 174°18'0 0.0
2020-Jan-16 09:28S 41°06' E 174°18'0 0.1
2020-Jan-16 08:28S 41°06' E 174°18'3 0.7
2020-Jan-16 04:30S 41°07' E 174°21'1 2.8
2020-Jan-16 04:00S 41°07' E 174°19'5 4.6
2020-Jan-16 03:00S 41°09' E 174°14'2 4.1
2020-Jan-16 02:30S 41°11' E 174°13'4 4.5
2020-Jan-16 01:30S 41°14' E 174°08'7 3.6
2020-Jan-15 23:29S 41°16' E 173°59'0 0.0
2020-Jan-15 22:29S 41°16' E 173°59'2 0.7
2020-Jan-15 19:59S 41°17' E 174°00'0 0.0
2020-Jan-15 19:29S 41°17' E 174°00'0 0.0
2020-Jan-15 17:59S 41°17' E 174°00'0 0.0
2020-Jan-15 13:59S 41°17' E 174°00'0 0.0
2020-Jan-15 12:29S 41°17' E 174°00'0 0.0
2020-Jan-15 11:29S 41°17' E 174°00'0 0.0
2020-Jan-15 09:29S 41°17' E 174°00'0 0.0
2020-Jan-15 08:29S 41°17' E 174°00'0 0.0
2020-Jan-15 04:59S 41°17' E 174°00'0 0.0
2020-Jan-15 03:29S 41°17' E 174°00'0 0.0
2020-Jan-15 02:29S 41°17' E 174°00'1 1.2
2020-Jan-15 01:30S 41°16' E 174°01'3 1.7
2020-Jan-15 00:01S 41°16' E 173°57'3 1.2
2020-Jan-14 21:30S 41°16' E 174°01'1 2.6
2020-Jan-14 21:00S 41°17' E 174°00'0 0.0
2020-Jan-14 19:30S 41°17' E 174°00'0 0.0
2020-Jan-14 18:30S 41°17' E 174°00'0 0.0
2020-Jan-14 18:00S 41°17' E 174°00'3 5.0
2020-Jan-14 17:30S 41°15' E 174°02'1 1.3
2020-Jan-14 16:59S 41°16' E 174°03'0 0.0
2020-Jan-14 14:59S 41°16' E 174°03'0 0.1
2020-Jan-14 14:29S 41°16' E 174°03'0 0.0
2020-Jan-14 13:29S 41°16' E 174°03'0 0.0
2020-Jan-14 11:59S 41°16' E 174°03'0 0.0
2020-Jan-14 11:29S 41°16' E 174°03'0 0.1
2020-Jan-14 10:59S 41°16' E 174°03'0 0.0
2020-Jan-14 09:59S 41°16' E 174°03'0 0.0
2020-Jan-14 07:29S 41°16' E 174°03'0 0.0
2020-Jan-14 05:59S 41°16' E 174°03'0 0.1
2020-Jan-14 05:29S 41°16' E 174°03'0 0.0
2020-Jan-14 00:59S 41°16' E 174°03'17 3.7
2020-Jan-13 20:30S 41°06' E 174°21'1 0.5
2020-Jan-13 18:00S 41°07' E 174°20'0 0.0
2020-Jan-13 17:00S 41°07' E 174°20'0 0.0
2020-Jan-13 12:00S 41°07' E 174°20'0 0.0
2020-Jan-13 11:00S 41°07' E 174°20'0 0.0
2020-Jan-13 08:00S 41°07' E 174°20'0 0.0
2020-Jan-13 06:30S 41°07' E 174°20'0 0.0
2020-Jan-13 05:00S 41°07' E 174°20'0 0.0
2020-Jan-13 04:30S 41°07' E 174°20'0 0.0
2020-Jan-13 04:00S 41°07' E 174°20'0 0.0
2020-Jan-13 03:30S 41°07' E 174°20'5 3.3
2020-Jan-13 02:01S 41°03' E 174°23'1 2.9
2020-Jan-13 01:31S 41°01' E 174°22'5 4.9
2020-Jan-13 00:30S 41°05' E 174°18'19 4.7
2020-Jan-12 20:28S 41°16' E 173°56'0 0.0
2020-Jan-12 18:28S 41°16' E 173°56'0 0.0
2020-Jan-12 17:28S 41°16' E 173°56'0 0.0
2020-Jan-12 16:28S 41°16' E 173°56'0 0.0
2020-Jan-12 15:58S 41°16' E 173°56'0 0.0
2020-Jan-12 15:28S 41°16' E 173°56'0 0.0
2020-Jan-12 12:28S 41°16' E 173°57'0 0.0
2020-Jan-12 11:28S 41°16' E 173°57'0 0.0
2020-Jan-12 10:28S 41°16' E 173°57'0 0.0
2020-Jan-12 08:58S 41°16' E 173°57'0 0.0
2020-Jan-12 08:28S 41°16' E 173°57'0 0.0
2020-Jan-12 06:58S 41°16' E 173°57'0 0.0
2020-Jan-12 02:58S 41°16' E 173°57'0 0.0
2020-Jan-12 00:58S 41°16' E 173°57'0 0.0
2020-Jan-11 23:58S 41°16' E 173°57'0 0.0
2020-Jan-11 22:58S 41°16' E 173°57'0 0.0
2020-Jan-11 22:28S 41°16' E 173°57'0 0.0
2020-Jan-11 21:28S 41°16' E 173°57'0 0.0
2020-Jan-11 20:58S 41°16' E 173°57'0 0.0
2020-Jan-11 16:58S 41°16' E 173°57'0 0.0
2020-Jan-11 15:58S 41°16' E 173°57'0 0.0
2020-Jan-11 10:58S 41°16' E 173°57'0 0.0
2020-Jan-11 06:28S 41°16' E 173°56'0 0.0
2020-Jan-11 03:28S 41°16' E 173°56'0 0.0
2020-Jan-11 02:58S 41°16' E 173°56'0 0.0
2020-Jan-11 02:28S 41°16' E 173°56'0 0.0
2020-Jan-11 01:28S 41°16' E 173°56'0 0.0
2020-Jan-10 23:58S 41°16' E 173°56'0 0.1
2020-Jan-10 23:28S 41°16' E 173°56'17 2.8
2020-Jan-10 17:28S 41°06' E 174°14'0 0.0
2020-Jan-10 16:58S 41°06' E 174°14'0 0.0
2020-Jan-10 15:28S 41°06' E 174°15'0 0.0
2020-Jan-10 12:28S 41°06' E 174°14'0 0.0
2020-Jan-10 10:28S 41°06' E 174°15'0 0.0
2020-Jan-10 08:28S 41°06' E 174°14'0 0.0
2020-Jan-10 07:58S 41°06' E 174°14'0 0.0
2020-Jan-10 07:28S 41°06' E 174°14'0 0.0
2020-Jan-10 06:58S 41°06' E 174°14'0 0.1
2020-Jan-10 06:28S 41°06' E 174°15'0 0.0
2020-Jan-10 01:30S 41°06' E 174°14'2 3.1
2020-Jan-10 01:01S 41°07' E 174°15'3 1.2
2020-Jan-09 22:31S 41°09' E 174°13'4 1.1
2020-Jan-09 19:00S 41°06' E 174°11'0 0.0
2020-Jan-09 17:30S 41°06' E 174°11'0 0.0
2020-Jan-09 14:30S 41°06' E 174°11'0 0.0
2020-Jan-09 09:30S 41°06' E 174°11'0 0.0
2020-Jan-09 09:00S 41°06' E 174°11'0 0.0
2020-Jan-09 08:27S 41°06' E 174°11'2 0.5
2020-Jan-09 03:30S 41°08' E 174°11'5 4.8
2020-Jan-09 02:30S 41°06' E 174°17'13 2.3
2020-Jan-08 20:59S 40°60' E 174°02'  
Track history (hours):
 
Tides and Currents Weather Stations Pressure Air Temp Water Temp Dewpoint Dewpoint Depression Visibility Wind Speed Wind Dir Waves Ship Positions

Spirit of New Zealand

Last reported at 2020-Jan-18 20:29 UTC. Time now 2020-Jan-18 20:50 UTC.
Position S 41°10' E 173°48'.

Length 37 m; draft 4.1 m.

Type: Passenger vessel. MMSI: 512201000.

Date/timePositionNaut miles runAvg speedWind from/ knotsBaromVisibWave heightAir tempDewpointWater temp
2020-Jan-18 20:29S 41°10' E 173°48'4 3.8
2020-Jan-18 19:30S 41°08' E 173°52'1 0.9
2020-Jan-18 17:58S 41°08' E 173°54'0 0.1
2020-Jan-18 17:28S 41°08' E 173°54'0 0.0
2020-Jan-18 16:28S 41°08' E 173°54'0 0.0
2020-Jan-18 15:28S 41°08' E 173°54'0 0.0
2020-Jan-18 14:58S 41°08' E 173°54'0 0.0
2020-Jan-18 13:28S 41°08' E 173°54'0 0.0
2020-Jan-18 10:28S 41°08' E 173°54'0 0.0
2020-Jan-18 09:55S 41°08' E 173°54'0 0.0
2020-Jan-18 06:28S 41°08' E 173°54'0 0.0
2020-Jan-18 05:58S 41°08' E 173°54'8 4.0
2020-Jan-18 04:01S 40°60' E 173°55'5 2.4
2020-Jan-18 02:01S 40°60' E 174°02'3 2.6
2020-Jan-18 01:01S 40°59' E 174°05'3 2.7
2020-Jan-18 00:00S 41°01' E 174°08'0 0.0
2020-Jan-17 20:00S 41°01' E 174°08'0 0.0
2020-Jan-17 18:30S 41°01' E 174°08'0 0.0
2020-Jan-17 17:30S 41°01' E 174°08'0 0.0
2020-Jan-17 16:30S 41°01' E 174°08'0 0.0
2020-Jan-17 15:00S 41°01' E 174°08'0 0.0
2020-Jan-17 11:30S 41°01' E 174°08'0 0.0
2020-Jan-17 08:30S 41°01' E 174°08'0 0.0
2020-Jan-17 07:00S 41°01' E 174°08'10 4.9
2020-Jan-17 05:00S 40°58' E 174°21'3 5.5
2020-Jan-17 04:31S 41°00' E 174°21'5 9.1
2020-Jan-17 04:00S 41°05' E 174°19'12 7.9
2020-Jan-17 02:30S 41°14' E 174°08'5 2.4
2020-Jan-17 00:28S 41°16' E 174°03'15 2.1
2020-Jan-16 17:28S 41°06' E 174°18'0 0.0
2020-Jan-16 16:58S 41°06' E 174°18'0 0.0
2020-Jan-16 13:58S 41°06' E 174°18'0 0.0
2020-Jan-16 12:58S 41°06' E 174°18'0 0.0
2020-Jan-16 12:28S 41°06' E 174°18'0 0.0
2020-Jan-16 11:58S 41°06' E 174°18'0 0.0
2020-Jan-16 10:58S 41°06' E 174°18'0 0.0
2020-Jan-16 09:28S 41°06' E 174°18'0 0.1
2020-Jan-16 08:28S 41°06' E 174°18'3 0.7
2020-Jan-16 04:30S 41°07' E 174°21'1 2.8
2020-Jan-16 04:00S 41°07' E 174°19'5 4.6
2020-Jan-16 03:00S 41°09' E 174°14'2 4.1
2020-Jan-16 02:30S 41°11' E 174°13'4 4.5
2020-Jan-16 01:30S 41°14' E 174°08'7 3.6
2020-Jan-15 23:29S 41°16' E 173°59'0 0.0
2020-Jan-15 22:29S 41°16' E 173°59'2 0.7
2020-Jan-15 19:59S 41°17' E 174°00'0 0.0
2020-Jan-15 19:29S 41°17' E 174°00'0 0.0
2020-Jan-15 17:59S 41°17' E 174°00'0 0.0
2020-Jan-15 13:59S 41°17' E 174°00'0 0.0
2020-Jan-15 12:29S 41°17' E 174°00'0 0.0
2020-Jan-15 11:29S 41°17' E 174°00'0 0.0
2020-Jan-15 09:29S 41°17' E 174°00'0 0.0
2020-Jan-15 08:29S 41°17' E 174°00'0 0.0
2020-Jan-15 04:59S 41°17' E 174°00'0 0.0
2020-Jan-15 03:29S 41°17' E 174°00'0 0.0
2020-Jan-15 02:29S 41°17' E 174°00'1 1.2
2020-Jan-15 01:30S 41°16' E 174°01'3 1.7
2020-Jan-15 00:01S 41°16' E 173°57'3 1.2
2020-Jan-14 21:30S 41°16' E 174°01'1 2.6
2020-Jan-14 21:00S 41°17' E 174°00'0 0.0
2020-Jan-14 19:30S 41°17' E 174°00'0 0.0
2020-Jan-14 18:30S 41°17' E 174°00'0 0.0
2020-Jan-14 18:00S 41°17' E 174°00'3 5.0
2020-Jan-14 17:30S 41°15' E 174°02'1 1.3
2020-Jan-14 16:59S 41°16' E 174°03'0 0.0
2020-Jan-14 14:59S 41°16' E 174°03'0 0.1
2020-Jan-14 14:29S 41°16' E 174°03'0 0.0
2020-Jan-14 13:29S 41°16' E 174°03'0 0.0
2020-Jan-14 11:59S 41°16' E 174°03'0 0.0
2020-Jan-14 11:29S 41°16' E 174°03'0 0.1
2020-Jan-14 10:59S 41°16' E 174°03'0 0.0
2020-Jan-14 09:59S 41°16' E 174°03'0 0.0
2020-Jan-14 07:29S 41°16' E 174°03'0 0.0
2020-Jan-14 05:59S 41°16' E 174°03'0 0.1
2020-Jan-14 05:29S 41°16' E 174°03'0 0.0
2020-Jan-14 00:59S 41°16' E 174°03'17 3.7
2020-Jan-13 20:30S 41°06' E 174°21'1 0.5
2020-Jan-13 18:00S 41°07' E 174°20'0 0.0
2020-Jan-13 17:00S 41°07' E 174°20'0 0.0
2020-Jan-13 12:00S 41°07' E 174°20'0 0.0
2020-Jan-13 11:00S 41°07' E 174°20'0 0.0
2020-Jan-13 08:00S 41°07' E 174°20'0 0.0
2020-Jan-13 06:30S 41°07' E 174°20'0 0.0
2020-Jan-13 05:00S 41°07' E 174°20'0 0.0
2020-Jan-13 04:30S 41°07' E 174°20'0 0.0
2020-Jan-13 04:00S 41°07' E 174°20'0 0.0
2020-Jan-13 03:30S 41°07' E 174°20'5 3.3
2020-Jan-13 02:01S 41°03' E 174°23'1 2.9
2020-Jan-13 01:31S 41°01' E 174°22'5 4.9
2020-Jan-13 00:30S 41°05' E 174°18'19 4.7
2020-Jan-12 20:28S 41°16' E 173°56'0 0.0
2020-Jan-12 18:28S 41°16' E 173°56'0 0.0
2020-Jan-12 17:28S 41°16' E 173°56'0 0.0
2020-Jan-12 16:28S 41°16' E 173°56'0 0.0
2020-Jan-12 15:58S 41°16' E 173°56'0 0.0
2020-Jan-12 15:28S 41°16' E 173°56'0 0.0
2020-Jan-12 12:28S 41°16' E 173°57'0 0.0
2020-Jan-12 11:28S 41°16' E 173°57'0 0.0
2020-Jan-12 10:28S 41°16' E 173°57'0 0.0
2020-Jan-12 08:58S 41°16' E 173°57'0 0.0
2020-Jan-12 08:28S 41°16' E 173°57'0 0.0
2020-Jan-12 06:58S 41°16' E 173°57'0 0.0
2020-Jan-12 02:58S 41°16' E 173°57'0 0.0
2020-Jan-12 00:58S 41°16' E 173°57'0 0.0
2020-Jan-11 23:58S 41°16' E 173°57'0 0.0
2020-Jan-11 22:58S 41°16' E 173°57'0 0.0
2020-Jan-11 22:28S 41°16' E 173°57'0 0.0
2020-Jan-11 21:28S 41°16' E 173°57'0 0.0
2020-Jan-11 20:58S 41°16' E 173°57'0 0.0
2020-Jan-11 16:58S 41°16' E 173°57'0 0.0
2020-Jan-11 15:58S 41°16' E 173°57'0 0.0
2020-Jan-11 10:58S 41°16' E 173°57'0 0.0
2020-Jan-11 06:28S 41°16' E 173°56'0 0.0
2020-Jan-11 03:28S 41°16' E 173°56'0 0.0
2020-Jan-11 02:58S 41°16' E 173°56'0 0.0
2020-Jan-11 02:28S 41°16' E 173°56'0 0.0
2020-Jan-11 01:28S 41°16' E 173°56'0 0.0
2020-Jan-10 23:58S 41°16' E 173°56'0 0.1
2020-Jan-10 23:28S 41°16' E 173°56'17 2.8
2020-Jan-10 17:28S 41°06' E 174°14'0 0.0
2020-Jan-10 16:58S 41°06' E 174°14'0 0.0
2020-Jan-10 15:28S 41°06' E 174°15'0 0.0
2020-Jan-10 12:28S 41°06' E 174°14'0 0.0
2020-Jan-10 10:28S 41°06' E 174°15'0 0.0
2020-Jan-10 08:28S 41°06' E 174°14'0 0.0
2020-Jan-10 07:58S 41°06' E 174°14'0 0.0
2020-Jan-10 07:28S 41°06' E 174°14'0 0.0
2020-Jan-10 06:58S 41°06' E 174°14'0 0.1
2020-Jan-10 06:28S 41°06' E 174°15'0 0.0
2020-Jan-10 01:30S 41°06' E 174°14'2 3.1
2020-Jan-10 01:01S 41°07' E 174°15'3 1.2
2020-Jan-09 22:31S 41°09' E 174°13'4 1.1
2020-Jan-09 19:00S 41°06' E 174°11'0 0.0
2020-Jan-09 17:30S 41°06' E 174°11'0 0.0
2020-Jan-09 14:30S 41°06' E 174°11'0 0.0
2020-Jan-09 09:30S 41°06' E 174°11'0 0.0
2020-Jan-09 09:00S 41°06' E 174°11'0 0.0
2020-Jan-09 08:27S 41°06' E 174°11'2 0.5
2020-Jan-09 03:30S 41°08' E 174°11'5 4.8
2020-Jan-09 02:30S 41°06' E 174°17'13 2.3
2020-Jan-08 20:59S 40°60' E 174°02'  

Dump ship's entire track history